sensor_id;sensor_type;location;lat;lon;timestamp;P1;durP1;ratioP1;P2;durP2;ratioP2
22871;SDS011;11603;44.910;8.630;2023-05-14T00:01:16;7.22;;;6.50;;
22871;SDS011;11603;44.910;8.630;2023-05-14T00:03:42;8.57;;;7.00;;
22871;SDS011;11603;44.910;8.630;2023-05-14T00:06:08;10.10;;;7.22;;
22871;SDS011;11603;44.910;8.630;2023-05-14T00:08:34;8.20;;;7.35;;
22871;SDS011;11603;44.910;8.630;2023-05-14T00:11:00;9.32;;;7.63;;
22871;SDS011;11603;44.910;8.630;2023-05-14T00:13:26;8.80;;;7.25;;
22871;SDS011;11603;44.910;8.630;2023-05-14T00:15:51;8.20;;;7.00;;
22871;SDS011;11603;44.910;8.630;2023-05-14T00:18:17;8.85;;;7.72;;
22871;SDS011;11603;44.910;8.630;2023-05-14T00:20:42;8.48;;;7.63;;
22871;SDS011;11603;44.910;8.630;2023-05-14T00:23:08;11.02;;;8.32;;
22871;SDS011;11603;44.910;8.630;2023-05-14T00:25:34;13.05;;;8.63;;
22871;SDS011;11603;44.910;8.630;2023-05-14T00:28:00;9.90;;;8.82;;
22871;SDS011;11603;44.910;8.630;2023-05-14T00:30:26;11.07;;;9.02;;
22871;SDS011;11603;44.910;8.630;2023-05-14T00:32:52;12.00;;;9.20;;
22871;SDS011;11603;44.910;8.630;2023-05-14T00:35:17;9.95;;;8.93;;
22871;SDS011;11603;44.910;8.630;2023-05-14T00:37:44;10.32;;;9.10;;
22871;SDS011;11603;44.910;8.630;2023-05-14T00:40:10;11.18;;;9.50;;
22871;SDS011;11603;44.910;8.630;2023-05-14T00:42:37;12.88;;;9.10;;
22871;SDS011;11603;44.910;8.630;2023-05-14T00:45:04;12.30;;;10.10;;
22871;SDS011;11603;44.910;8.630;2023-05-14T00:47:30;11.45;;;10.25;;
22871;SDS011;11603;44.910;8.630;2023-05-14T00:49:56;11.20;;;10.02;;
22871;SDS011;11603;44.910;8.630;2023-05-14T00:52:21;12.70;;;10.32;;
22871;SDS011;11603;44.910;8.630;2023-05-14T00:54:47;11.13;;;10.05;;
22871;SDS011;11603;44.910;8.630;2023-05-14T00:57:13;11.40;;;10.15;;
22871;SDS011;11603;44.910;8.630;2023-05-14T00:59:38;11.65;;;10.48;;
22871;SDS011;11603;44.910;8.630;2023-05-14T01:02:06;12.18;;;10.35;;
22871;SDS011;11603;44.910;8.630;2023-05-14T01:04:32;16.33;;;10.73;;
22871;SDS011;11603;44.910;8.630;2023-05-14T01:07:11;11.23;;;10.13;;
22871;SDS011;11603;44.910;8.630;2023-05-14T01:09:50;11.52;;;10.32;;
22871;SDS011;11603;44.910;8.630;2023-05-14T01:15:18;15.30;;;10.63;;
22871;SDS011;11603;44.910;8.630;2023-05-14T01:17:53;12.65;;;10.68;;
22871;SDS011;11603;44.910;8.630;2023-05-14T01:20:23;14.50;;;11.27;;
22871;SDS011;11603;44.910;8.630;2023-05-14T01:22:50;16.05;;;10.65;;
22871;SDS011;11603;44.910;8.630;2023-05-14T01:25:15;12.10;;;10.85;;
22871;SDS011;11603;44.910;8.630;2023-05-14T01:30:27;11.50;;;10.30;;
22871;SDS011;11603;44.910;8.630;2023-05-14T01:33:12;10.93;;;9.88;;
22871;SDS011;11603;44.910;8.630;2023-05-14T01:35:40;11.43;;;9.90;;
22871;SDS011;11603;44.910;8.630;2023-05-14T01:38:08;13.20;;;10.00;;
22871;SDS011;11603;44.910;8.630;2023-05-14T01:40:38;10.88;;;9.77;;
22871;SDS011;11603;44.910;8.630;2023-05-14T01:43:04;10.05;;;8.85;;
22871;SDS011;11603;44.910;8.630;2023-05-14T01:45:30;10.95;;;9.85;;
22871;SDS011;11603;44.910;8.630;2023-05-14T01:47:58;10.57;;;9.48;;
22871;SDS011;11603;44.910;8.630;2023-05-14T01:50:24;11.30;;;9.60;;
22871;SDS011;11603;44.910;8.630;2023-05-14T01:52:49;12.27;;;10.10;;
22871;SDS011;11603;44.910;8.630;2023-05-14T01:55:17;11.80;;;10.18;;
22871;SDS011;11603;44.910;8.630;2023-05-14T01:57:43;11.98;;;9.77;;
22871;SDS011;11603;44.910;8.630;2023-05-14T02:00:09;11.63;;;9.60;;
22871;SDS011;11603;44.910;8.630;2023-05-14T02:02:40;10.82;;;9.70;;
22871;SDS011;11603;44.910;8.630;2023-05-14T02:05:07;12.60;;;9.95;;
22871;SDS011;11603;44.910;8.630;2023-05-14T02:07:35;10.98;;;9.75;;
22871;SDS011;11603;44.910;8.630;2023-05-14T02:10:00;12.52;;;9.75;;
22871;SDS011;11603;44.910;8.630;2023-05-14T02:12:26;10.38;;;9.32;;
22871;SDS011;11603;44.910;8.630;2023-05-14T02:14:52;11.05;;;9.70;;
22871;SDS011;11603;44.910;8.630;2023-05-14T02:17:17;11.13;;;9.65;;
22871;SDS011;11603;44.910;8.630;2023-05-14T02:19:43;11.20;;;9.98;;
22871;SDS011;11603;44.910;8.630;2023-05-14T02:22:09;11.73;;;10.52;;
22871;SDS011;11603;44.910;8.630;2023-05-14T02:24:34;11.50;;;10.35;;
22871;SDS011;11603;44.910;8.630;2023-05-14T02:27:00;12.98;;;11.27;;
22871;SDS011;11603;44.910;8.630;2023-05-14T02:29:25;14.07;;;11.60;;
22871;SDS011;11603;44.910;8.630;2023-05-14T02:31:51;13.25;;;11.88;;
22871;SDS011;11603;44.910;8.630;2023-05-14T02:34:17;14.68;;;12.20;;
22871;SDS011;11603;44.910;8.630;2023-05-14T02:36:43;14.48;;;12.80;;
22871;SDS011;11603;44.910;8.630;2023-05-14T02:39:08;14.75;;;13.07;;
22871;SDS011;11603;44.910;8.630;2023-05-14T02:41:33;15.40;;;12.95;;
22871;SDS011;11603;44.910;8.630;2023-05-14T02:43:59;14.60;;;13.05;;
22871;SDS011;11603;44.910;8.630;2023-05-14T02:46:24;17.88;;;13.68;;
22871;SDS011;11603;44.910;8.630;2023-05-14T02:48:50;14.77;;;12.63;;
22871;SDS011;11603;44.910;8.630;2023-05-14T02:51:16;15.73;;;14.07;;
22871;SDS011;11603;44.910;8.630;2023-05-14T02:53:43;15.55;;;13.95;;
22871;SDS011;11603;44.910;8.630;2023-05-14T02:56:09;15.63;;;14.02;;
22871;SDS011;11603;44.910;8.630;2023-05-14T02:58:34;16.30;;;14.70;;
22871;SDS011;11603;44.910;8.630;2023-05-14T03:01:00;17.65;;;15.90;;
22871;SDS011;11603;44.910;8.630;2023-05-14T03:03:25;16.80;;;15.10;;
22871;SDS011;11603;44.910;8.630;2023-05-14T03:05:51;17.30;;;15.57;;
22871;SDS011;11603;44.910;8.630;2023-05-14T03:08:16;17.75;;;15.90;;
22871;SDS011;11603;44.910;8.630;2023-05-14T03:10:42;17.52;;;15.05;;
22871;SDS011;11603;44.910;8.630;2023-05-14T03:13:07;18.27;;;16.48;;
22871;SDS011;11603;44.910;8.630;2023-05-14T03:15:33;18.02;;;16.13;;
22871;SDS011;11603;44.910;8.630;2023-05-14T03:17:58;18.23;;;15.43;;
22871;SDS011;11603;44.910;8.630;2023-05-14T03:20:24;17.23;;;15.40;;
22871;SDS011;11603;44.910;8.630;2023-05-14T03:22:51;18.52;;;16.33;;
22871;SDS011;11603;44.910;8.630;2023-05-14T03:25:16;17.60;;;15.90;;
22871;SDS011;11603;44.910;8.630;2023-05-14T03:27:42;18.50;;;16.20;;
22871;SDS011;11603;44.910;8.630;2023-05-14T03:30:07;17.73;;;15.93;;
22871;SDS011;11603;44.910;8.630;2023-05-14T03:32:33;18.30;;;16.30;;
22871;SDS011;11603;44.910;8.630;2023-05-14T03:34:59;18.45;;;15.57;;
22871;SDS011;11603;44.910;8.630;2023-05-14T03:37:24;16.02;;;14.43;;
22871;SDS011;11603;44.910;8.630;2023-05-14T03:39:50;17.15;;;14.05;;
22871;SDS011;11603;44.910;8.630;2023-05-14T03:42:15;17.05;;;15.18;;
22871;SDS011;11603;44.910;8.630;2023-05-14T03:44:41;15.43;;;13.82;;
22871;SDS011;11603;44.910;8.630;2023-05-14T03:47:06;14.82;;;13.43;;
22871;SDS011;11603;44.910;8.630;2023-05-14T03:49:32;14.45;;;13.05;;
22871;SDS011;11603;44.910;8.630;2023-05-14T03:51:57;14.27;;;12.90;;
22871;SDS011;11603;44.910;8.630;2023-05-14T03:54:24;14.27;;;12.77;;
22871;SDS011;11603;44.910;8.630;2023-05-14T03:56:50;15.82;;;12.52;;
22871;SDS011;11603;44.910;8.630;2023-05-14T03:59:16;13.93;;;12.52;;
22871;SDS011;11603;44.910;8.630;2023-05-14T04:01:42;14.45;;;11.93;;
22871;SDS011;11603;44.910;8.630;2023-05-14T04:04:08;14.38;;;12.85;;
22871;SDS011;11603;44.910;8.630;2023-05-14T04:06:34;13.23;;;11.93;;
22871;SDS011;11603;44.910;8.630;2023-05-14T04:09:00;13.13;;;11.77;;
22871;SDS011;11603;44.910;8.630;2023-05-14T04:11:26;13.52;;;12.13;;
22871;SDS011;11603;44.910;8.630;2023-05-14T04:13:51;13.57;;;11.95;;
22871;SDS011;11603;44.910;8.630;2023-05-14T04:16:17;12.45;;;11.25;;
22871;SDS011;11603;44.910;8.630;2023-05-14T04:18:42;12.25;;;11.10;;
22871;SDS011;11603;44.910;8.630;2023-05-14T04:21:08;13.30;;;11.98;;
22871;SDS011;11603;44.910;8.630;2023-05-14T04:23:33;13.15;;;11.90;;
22871;SDS011;11603;44.910;8.630;2023-05-14T04:25:59;12.23;;;11.13;;
22871;SDS011;11603;44.910;8.630;2023-05-14T04:28:24;12.57;;;11.27;;
22871;SDS011;11603;44.910;8.630;2023-05-14T04:30:50;12.75;;;11.45;;
22871;SDS011;11603;44.910;8.630;2023-05-14T04:33:16;13.25;;;10.63;;
22871;SDS011;11603;44.910;8.630;2023-05-14T04:35:42;11.48;;;9.55;;
22871;SDS011;11603;44.910;8.630;2023-05-14T04:38:09;12.93;;;10.30;;
22871;SDS011;11603;44.910;8.630;2023-05-14T04:40:35;10.52;;;9.43;;
22871;SDS011;11603;44.910;8.630;2023-05-14T04:43:01;12.00;;;10.00;;
22871;SDS011;11603;44.910;8.630;2023-05-14T04:45:27;10.55;;;9.55;;
22871;SDS011;11603;44.910;8.630;2023-05-14T04:47:52;11.05;;;9.80;;
22871;SDS011;11603;44.910;8.630;2023-05-14T04:50:18;11.43;;;9.23;;
22871;SDS011;11603;44.910;8.630;2023-05-14T04:52:43;10.77;;;9.05;;
22871;SDS011;11603;44.910;8.630;2023-05-14T04:55:09;11.13;;;9.68;;
22871;SDS011;11603;44.910;8.630;2023-05-14T04:57:34;10.35;;;9.10;;
22871;SDS011;11603;44.910;8.630;2023-05-14T05:00:00;11.32;;;9.63;;
22871;SDS011;11603;44.910;8.630;2023-05-14T05:02:25;9.77;;;8.88;;
22871;SDS011;11603;44.910;8.630;2023-05-14T05:04:51;9.70;;;8.60;;
22871;SDS011;11603;44.910;8.630;2023-05-14T05:07:16;10.45;;;9.45;;
22871;SDS011;11603;44.910;8.630;2023-05-14T05:09:42;9.68;;;8.73;;
22871;SDS011;11603;44.910;8.630;2023-05-14T05:12:08;10.32;;;9.25;;
22871;SDS011;11603;44.910;8.630;2023-05-14T05:14:33;10.43;;;9.32;;
22871;SDS011;11603;44.910;8.630;2023-05-14T05:16:59;10.07;;;9.07;;
22871;SDS011;11603;44.910;8.630;2023-05-14T05:19:25;10.32;;;9.25;;
22871;SDS011;11603;44.910;8.630;2023-05-14T05:21:50;12.25;;;8.73;;
22871;SDS011;11603;44.910;8.630;2023-05-14T05:24:15;11.23;;;9.50;;
22871;SDS011;11603;44.910;8.630;2023-05-14T05:26:41;10.43;;;9.32;;
22871;SDS011;11603;44.910;8.630;2023-05-14T05:29:06;9.93;;;8.93;;
22871;SDS011;11603;44.910;8.630;2023-05-14T05:31:32;11.52;;;9.57;;
22871;SDS011;11603;44.910;8.630;2023-05-14T05:33:58;11.25;;;8.95;;
22871;SDS011;11603;44.910;8.630;2023-05-14T05:36:24;9.98;;;8.90;;
22871;SDS011;11603;44.910;8.630;2023-05-14T05:38:50;9.80;;;8.50;;
22871;SDS011;11603;44.910;8.630;2023-05-14T05:41:15;9.07;;;8.15;;
22871;SDS011;11603;44.910;8.630;2023-05-14T05:43:41;11.50;;;8.70;;
22871;SDS011;11603;44.910;8.630;2023-05-14T05:46:06;11.45;;;8.30;;
22871;SDS011;11603;44.910;8.630;2023-05-14T05:48:32;10.00;;;8.32;;
22871;SDS011;11603;44.910;8.630;2023-05-14T05:50:57;8.68;;;7.78;;
22871;SDS011;11603;44.910;8.630;2023-05-14T05:53:23;8.73;;;7.80;;
22871;SDS011;11603;44.910;8.630;2023-05-14T05:55:48;8.57;;;7.10;;
22871;SDS011;11603;44.910;8.630;2023-05-14T05:58:16;8.82;;;7.40;;
22871;SDS011;11603;44.910;8.630;2023-05-14T06:00:42;7.47;;;6.47;;
22871;SDS011;11603;44.910;8.630;2023-05-14T06:03:08;6.97;;;5.95;;
22871;SDS011;11603;44.910;8.630;2023-05-14T06:05:33;6.95;;;5.97;;
22871;SDS011;11603;44.910;8.630;2023-05-14T06:07:59;7.78;;;6.97;;
22871;SDS011;11603;44.910;8.630;2023-05-14T06:10:25;8.60;;;7.03;;
22871;SDS011;11603;44.910;8.630;2023-05-14T06:12:50;8.30;;;6.95;;
22871;SDS011;11603;44.910;8.630;2023-05-14T06:15:16;6.95;;;6.07;;
22871;SDS011;11603;44.910;8.630;2023-05-14T06:17:41;8.40;;;6.03;;
22871;SDS011;11603;44.910;8.630;2023-05-14T06:20:06;8.68;;;5.93;;
22871;SDS011;11603;44.910;8.630;2023-05-14T06:22:33;6.60;;;5.97;;
22871;SDS011;11603;44.910;8.630;2023-05-14T06:24:58;6.88;;;5.97;;
22871;SDS011;11603;44.910;8.630;2023-05-14T06:27:24;6.97;;;5.85;;
22871;SDS011;11603;44.910;8.630;2023-05-14T06:29:49;6.63;;;5.78;;
22871;SDS011;11603;44.910;8.630;2023-05-14T06:32:15;8.05;;;5.40;;
22871;SDS011;11603;44.910;8.630;2023-05-14T06:34:41;9.60;;;5.93;;
22871;SDS011;11603;44.910;8.630;2023-05-14T06:37:07;8.75;;;6.07;;
22871;SDS011;11603;44.910;8.630;2023-05-14T06:39:33;7.95;;;6.03;;
22871;SDS011;11603;44.910;8.630;2023-05-14T06:42:00;7.15;;;6.38;;
22871;SDS011;11603;44.910;8.630;2023-05-14T06:44:25;6.90;;;6.20;;
22871;SDS011;11603;44.910;8.630;2023-05-14T06:46:51;13.85;;;7.35;;
22871;SDS011;11603;44.910;8.630;2023-05-14T06:49:16;23.45;;;7.95;;
22871;SDS011;11603;44.910;8.630;2023-05-14T06:51:42;23.13;;;7.13;;
22871;SDS011;11603;44.910;8.630;2023-05-14T06:54:07;8.18;;;6.68;;
22871;SDS011;11603;44.910;8.630;2023-05-14T06:56:33;17.70;;;7.30;;
22871;SDS011;11603;44.910;8.630;2023-05-14T06:58:58;8.13;;;6.57;;
22871;SDS011;11603;44.910;8.630;2023-05-14T07:01:24;9.32;;;7.65;;
22871;SDS011;11603;44.910;8.630;2023-05-14T07:03:50;9.85;;;7.97;;
22871;SDS011;11603;44.910;8.630;2023-05-14T07:06:15;8.32;;;7.53;;
22871;SDS011;11603;44.910;8.630;2023-05-14T07:08:41;9.88;;;7.32;;
22871;SDS011;11603;44.910;8.630;2023-05-14T07:11:10;9.00;;;8.10;;
22871;SDS011;11603;44.910;8.630;2023-05-14T07:13:35;10.80;;;7.43;;
22871;SDS011;11603;44.910;8.630;2023-05-14T07:16:01;9.73;;;7.30;;
22871;SDS011;11603;44.910;8.630;2023-05-14T07:18:26;8.93;;;6.75;;
22871;SDS011;11603;44.910;8.630;2023-05-14T07:20:52;7.45;;;6.63;;
22871;SDS011;11603;44.910;8.630;2023-05-14T07:23:18;7.18;;;6.45;;
22871;SDS011;11603;44.910;8.630;2023-05-14T07:25:43;8.38;;;6.18;;
22871;SDS011;11603;44.910;8.630;2023-05-14T07:28:09;6.75;;;6.13;;
22871;SDS011;11603;44.910;8.630;2023-05-14T07:30:34;8.07;;;6.10;;
22871;SDS011;11603;44.910;8.630;2023-05-14T07:33:00;8.55;;;6.18;;
22871;SDS011;11603;44.910;8.630;2023-05-14T07:35:25;6.93;;;6.10;;
22871;SDS011;11603;44.910;8.630;2023-05-14T07:37:51;10.43;;;5.88;;
22871;SDS011;11603;44.910;8.630;2023-05-14T07:40:17;7.85;;;5.10;;
22871;SDS011;11603;44.910;8.630;2023-05-14T07:42:42;5.32;;;4.65;;
22871;SDS011;11603;44.910;8.630;2023-05-14T07:45:08;5.22;;;3.90;;
22871;SDS011;11603;44.910;8.630;2023-05-14T07:47:33;4.82;;;4.10;;
22871;SDS011;11603;44.910;8.630;2023-05-14T07:49:59;7.72;;;4.75;;
22871;SDS011;11603;44.910;8.630;2023-05-14T07:52:25;6.75;;;4.65;;
22871;SDS011;11603;44.910;8.630;2023-05-14T07:54:51;5.18;;;4.68;;
22871;SDS011;11603;44.910;8.630;2023-05-14T07:57:17;4.72;;;4.22;;
22871;SDS011;11603;44.910;8.630;2023-05-14T07:59:43;5.13;;;3.50;;
22871;SDS011;11603;44.910;8.630;2023-05-14T08:02:09;6.60;;;3.60;;
22871;SDS011;11603;44.910;8.630;2023-05-14T08:04:36;4.22;;;3.78;;
22871;SDS011;11603;44.910;8.630;2023-05-14T08:07:02;8.57;;;4.47;;
22871;SDS011;11603;44.910;8.630;2023-05-14T08:09:27;5.30;;;3.65;;
22871;SDS011;11603;44.910;8.630;2023-05-14T08:11:53;4.15;;;2.60;;
22871;SDS011;11603;44.910;8.630;2023-05-14T08:14:18;3.80;;;2.33;;
22871;SDS011;11603;44.910;8.630;2023-05-14T08:16:45;3.03;;;2.00;;
22871;SDS011;11603;44.910;8.630;2023-05-14T08:19:12;6.05;;;2.50;;
22871;SDS011;11603;44.910;8.630;2023-05-14T08:21:37;4.05;;;2.20;;
22871;SDS011;11603;44.910;8.630;2023-05-14T08:24:03;5.00;;;2.60;;
22871;SDS011;11603;44.910;8.630;2023-05-14T08:26:28;3.03;;;2.30;;
22871;SDS011;11603;44.910;8.630;2023-05-14T08:28:54;2.47;;;2.13;;
22871;SDS011;11603;44.910;8.630;2023-05-14T08:31:19;4.28;;;2.20;;
22871;SDS011;11603;44.910;8.630;2023-05-14T08:33:45;2.95;;;1.60;;
22871;SDS011;11603;44.910;8.630;2023-05-14T08:36:10;5.88;;;1.73;;
22871;SDS011;11603;44.910;8.630;2023-05-14T08:38:37;6.35;;;1.77;;
22871;SDS011;11603;44.910;8.630;2023-05-14T08:41:02;1.50;;;1.35;;
22871;SDS011;11603;44.910;8.630;2023-05-14T08:43:33;2.80;;;1.40;;
22871;SDS011;11603;44.910;8.630;2023-05-14T08:46:15;2.67;;;2.00;;
22871;SDS011;11603;44.910;8.630;2023-05-14T08:48:42;2.97;;;1.65;;
22871;SDS011;11603;44.910;8.630;2023-05-14T08:51:12;6.20;;;2.03;;
22871;SDS011;11603;44.910;8.630;2023-05-14T08:53:37;2.42;;;1.50;;
22871;SDS011;11603;44.910;8.630;2023-05-14T08:56:04;2.47;;;1.70;;
22871;SDS011;11603;44.910;8.630;2023-05-14T08:58:32;2.85;;;1.50;;
22871;SDS011;11603;44.910;8.630;2023-05-14T09:00:58;2.78;;;1.45;;
22871;SDS011;11603;44.910;8.630;2023-05-14T09:03:24;2.22;;;1.50;;
22871;SDS011;11603;44.910;8.630;2023-05-14T09:05:49;2.75;;;1.55;;
22871;SDS011;11603;44.910;8.630;2023-05-14T09:08:16;2.45;;;1.70;;
22871;SDS011;11603;44.910;8.630;2023-05-14T09:10:41;5.80;;;1.60;;
22871;SDS011;11603;44.910;8.630;2023-05-14T09:13:07;2.70;;;1.40;;
22871;SDS011;11603;44.910;8.630;2023-05-14T09:15:34;2.88;;;1.70;;
22871;SDS011;11603;44.910;8.630;2023-05-14T09:18:19;3.30;;;1.20;;
22871;SDS011;11603;44.910;8.630;2023-05-14T09:20:46;1.52;;;0.95;;
22871;SDS011;11603;44.910;8.630;2023-05-14T09:23:12;1.63;;;1.20;;
22871;SDS011;11603;44.910;8.630;2023-05-14T09:25:37;6.25;;;1.13;;
22871;SDS011;11603;44.910;8.630;2023-05-14T09:28:07;1.42;;;1.15;;
22871;SDS011;11603;44.910;8.630;2023-05-14T09:30:33;2.75;;;1.20;;
22871;SDS011;11603;44.910;8.630;2023-05-14T09:33:01;4.55;;;1.30;;
22871;SDS011;11603;44.910;8.630;2023-05-14T09:35:28;1.33;;;0.80;;
22871;SDS011;11603;44.910;8.630;2023-05-14T09:37:54;2.45;;;1.77;;
22871;SDS011;11603;44.910;8.630;2023-05-14T09:40:20;3.50;;;1.45;;
22871;SDS011;11603;44.910;8.630;2023-05-14T09:42:47;4.07;;;0.80;;
22871;SDS011;11603;44.910;8.630;2023-05-14T09:45:13;2.08;;;0.80;;
22871;SDS011;11603;44.910;8.630;2023-05-14T09:47:39;1.60;;;1.00;;
22871;SDS011;11603;44.910;8.630;2023-05-14T09:50:05;3.10;;;1.00;;
22871;SDS011;11603;44.910;8.630;2023-05-14T09:52:32;2.38;;;1.00;;
22871;SDS011;11603;44.910;8.630;2023-05-14T09:54:57;1.38;;;1.00;;
22871;SDS011;11603;44.910;8.630;2023-05-14T09:57:24;2.08;;;0.90;;
22871;SDS011;11603;44.910;8.630;2023-05-14T09:59:51;1.20;;;1.10;;
22871;SDS011;11603;44.910;8.630;2023-05-14T10:02:24;1.52;;;1.13;;
22871;SDS011;11603;44.910;8.630;2023-05-14T10:04:54;2.22;;;1.40;;
22871;SDS011;11603;44.910;8.630;2023-05-14T10:07:26;1.92;;;1.58;;
22871;SDS011;11603;44.910;8.630;2023-05-14T10:10:02;1.35;;;1.15;;
22871;SDS011;11603;44.910;8.630;2023-05-14T10:12:31;3.35;;;1.30;;
22871;SDS011;11603;44.910;8.630;2023-05-14T10:15:00;1.38;;;1.13;;
22871;SDS011;11603;44.910;8.630;2023-05-14T10:17:30;3.88;;;1.20;;
22871;SDS011;11603;44.910;8.630;2023-05-14T10:19:58;1.48;;;1.38;;
22871;SDS011;11603;44.910;8.630;2023-05-14T10:22:29;4.88;;;1.27;;
22871;SDS011;11603;44.910;8.630;2023-05-14T10:24:57;1.63;;;1.20;;
22871;SDS011;11603;44.910;8.630;2023-05-14T10:27:23;3.80;;;1.20;;
22871;SDS011;11603;44.910;8.630;2023-05-14T10:29:50;3.17;;;1.50;;
22871;SDS011;11603;44.910;8.630;2023-05-14T10:32:20;2.45;;;1.33;;
22871;SDS011;11603;44.910;8.630;2023-05-14T10:34:49;3.10;;;1.20;;
22871;SDS011;11603;44.910;8.630;2023-05-14T10:37:16;2.20;;;1.35;;
22871;SDS011;11603;44.910;8.630;2023-05-14T10:39:50;1.95;;;1.00;;
22871;SDS011;11603;44.910;8.630;2023-05-14T10:42:21;2.35;;;1.33;;
22871;SDS011;11603;44.910;8.630;2023-05-14T10:44:49;1.77;;;1.20;;
22871;SDS011;11603;44.910;8.630;2023-05-14T10:47:26;1.90;;;1.38;;
22871;SDS011;11603;44.910;8.630;2023-05-14T10:49:54;1.92;;;1.40;;
22871;SDS011;11603;44.910;8.630;2023-05-14T10:52:21;1.55;;;1.40;;
22871;SDS011;11603;44.910;8.630;2023-05-14T10:57:20;2.03;;;1.40;;
22871;SDS011;11603;44.910;8.630;2023-05-14T10:59:47;3.72;;;1.92;;
22871;SDS011;11603;44.910;8.630;2023-05-14T11:02:21;1.30;;;1.20;;
22871;SDS011;11603;44.910;8.630;2023-05-14T11:07:22;1.65;;;1.15;;
22871;SDS011;11603;44.910;8.630;2023-05-14T11:09:51;4.65;;;1.30;;
22871;SDS011;11603;44.910;8.630;2023-05-14T11:12:17;1.88;;;1.15;;
22871;SDS011;11603;44.910;8.630;2023-05-14T11:14:44;1.33;;;1.20;;
22871;SDS011;11603;44.910;8.630;2023-05-14T11:17:10;1.83;;;1.33;;
22871;SDS011;11603;44.910;8.630;2023-05-14T11:19:36;3.42;;;1.63;;
22871;SDS011;11603;44.910;8.630;2023-05-14T11:22:01;3.72;;;0.98;;
22871;SDS011;11603;44.910;8.630;2023-05-14T11:24:27;3.47;;;1.30;;
22871;SDS011;11603;44.910;8.630;2023-05-14T11:26:53;4.40;;;1.20;;
22871;SDS011;11603;44.910;8.630;2023-05-14T11:29:19;4.95;;;1.52;;
22871;SDS011;11603;44.910;8.630;2023-05-14T11:31:45;1.95;;;1.17;;
22871;SDS011;11603;44.910;8.630;2023-05-14T11:34:11;3.90;;;1.02;;
22871;SDS011;11603;44.910;8.630;2023-05-14T11:36:37;2.03;;;1.55;;
22871;SDS011;11603;44.910;8.630;2023-05-14T11:39:02;0.90;;;0.90;;
22871;SDS011;11603;44.910;8.630;2023-05-14T11:41:28;1.25;;;1.05;;
22871;SDS011;11603;44.910;8.630;2023-05-14T11:43:56;2.50;;;0.98;;
22871;SDS011;11603;44.910;8.630;2023-05-14T11:46:22;1.85;;;1.20;;
22871;SDS011;11603;44.910;8.630;2023-05-14T11:48:49;3.00;;;1.50;;
22871;SDS011;11603;44.910;8.630;2023-05-14T11:51:15;1.85;;;1.63;;
22871;SDS011;11603;44.910;8.630;2023-05-14T11:53:41;2.30;;;1.00;;
22871;SDS011;11603;44.910;8.630;2023-05-14T11:56:06;1.30;;;1.20;;
22871;SDS011;11603;44.910;8.630;2023-05-14T11:58:31;1.63;;;1.10;;
22871;SDS011;11603;44.910;8.630;2023-05-14T12:00:58;1.52;;;1.02;;
22871;SDS011;11603;44.910;8.630;2023-05-14T12:03:23;1.77;;;1.17;;
22871;SDS011;11603;44.910;8.630;2023-05-14T12:05:53;2.70;;;1.40;;
22871;SDS011;11603;44.910;8.630;2023-05-14T12:08:26;1.55;;;1.17;;
22871;SDS011;11603;44.910;8.630;2023-05-14T12:10:59;1.73;;;1.20;;
22871;SDS011;11603;44.910;8.630;2023-05-14T12:13:25;1.30;;;1.10;;
22871;SDS011;11603;44.910;8.630;2023-05-14T12:15:52;1.48;;;1.20;;
22871;SDS011;11603;44.910;8.630;2023-05-14T12:18:20;1.45;;;0.90;;
22871;SDS011;11603;44.910;8.630;2023-05-14T12:20:48;1.92;;;0.85;;
22871;SDS011;11603;44.910;8.630;2023-05-14T12:23:16;1.85;;;1.00;;
22871;SDS011;11603;44.910;8.630;2023-05-14T12:25:49;3.20;;;1.20;;
22871;SDS011;11603;44.910;8.630;2023-05-14T12:28:15;1.42;;;1.10;;
22871;SDS011;11603;44.910;8.630;2023-05-14T12:30:41;2.28;;;1.00;;
22871;SDS011;11603;44.910;8.630;2023-05-14T12:33:07;6.38;;;1.17;;
22871;SDS011;11603;44.910;8.630;2023-05-14T12:35:32;3.15;;;1.08;;
22871;SDS011;11603;44.910;8.630;2023-05-14T12:37:58;3.15;;;1.10;;
22871;SDS011;11603;44.910;8.630;2023-05-14T12:40:23;2.67;;;0.88;;
22871;SDS011;11603;44.910;8.630;2023-05-14T12:42:49;1.15;;;0.90;;
22871;SDS011;11603;44.910;8.630;2023-05-14T12:45:14;3.78;;;1.23;;
22871;SDS011;11603;44.910;8.630;2023-05-14T12:47:40;1.90;;;1.08;;
22871;SDS011;11603;44.910;8.630;2023-05-14T12:50:05;1.33;;;1.20;;
22871;SDS011;11603;44.910;8.630;2023-05-14T12:52:31;1.52;;;0.90;;
22871;SDS011;11603;44.910;8.630;2023-05-14T12:54:57;2.03;;;1.20;;
22871;SDS011;11603;44.910;8.630;2023-05-14T12:57:22;1.25;;;1.10;;
22871;SDS011;11603;44.910;8.630;2023-05-14T12:59:48;1.73;;;0.93;;
22871;SDS011;11603;44.910;8.630;2023-05-14T13:02:13;0.82;;;0.82;;
22871;SDS011;11603;44.910;8.630;2023-05-14T13:04:39;1.83;;;1.05;;
22871;SDS011;11603;44.910;8.630;2023-05-14T13:07:05;2.60;;;1.00;;
22871;SDS011;11603;44.910;8.630;2023-05-14T13:09:32;0.95;;;0.80;;
22871;SDS011;11603;44.910;8.630;2023-05-14T13:11:58;2.17;;;1.08;;
22871;SDS011;11603;44.910;8.630;2023-05-14T13:14:23;1.38;;;1.08;;
22871;SDS011;11603;44.910;8.630;2023-05-14T13:16:49;1.00;;;0.65;;
22871;SDS011;11603;44.910;8.630;2023-05-14T13:19:15;1.40;;;1.00;;
22871;SDS011;11603;44.910;8.630;2023-05-14T13:21:40;3.20;;;1.25;;
22871;SDS011;11603;44.910;8.630;2023-05-14T13:24:05;2.75;;;1.15;;
22871;SDS011;11603;44.910;8.630;2023-05-14T13:26:31;1.33;;;1.00;;
22871;SDS011;11603;44.910;8.630;2023-05-14T13:28:57;2.55;;;1.08;;
22871;SDS011;11603;44.910;8.630;2023-05-14T13:31:22;3.10;;;0.90;;
22871;SDS011;11603;44.910;8.630;2023-05-14T13:33:48;2.78;;;1.15;;
22871;SDS011;11603;44.910;8.630;2023-05-14T13:36:13;2.85;;;1.20;;
22871;SDS011;11603;44.910;8.630;2023-05-14T13:38:40;4.63;;;1.17;;
22871;SDS011;11603;44.910;8.630;2023-05-14T13:41:05;2.58;;;1.10;;
22871;SDS011;11603;44.910;8.630;2023-05-14T13:43:32;0.95;;;0.75;;
22871;SDS011;11603;44.910;8.630;2023-05-14T13:45:59;2.88;;;0.93;;
22871;SDS011;11603;44.910;8.630;2023-05-14T13:48:25;1.67;;;1.10;;
22871;SDS011;11603;44.910;8.630;2023-05-14T13:50:52;2.25;;;1.20;;
22871;SDS011;11603;44.910;8.630;2023-05-14T13:53:18;2.97;;;1.30;;
22871;SDS011;11603;44.910;8.630;2023-05-14T13:55:45;2.10;;;1.20;;
22871;SDS011;11603;44.910;8.630;2023-05-14T13:58:10;2.08;;;1.25;;
22871;SDS011;11603;44.910;8.630;2023-05-14T14:00:36;1.10;;;1.00;;
22871;SDS011;11603;44.910;8.630;2023-05-14T14:03:01;1.67;;;1.00;;
22871;SDS011;11603;44.910;8.630;2023-05-14T14:05:27;3.13;;;1.60;;
22871;SDS011;11603;44.910;8.630;2023-05-14T14:07:53;2.67;;;1.40;;
22871;SDS011;11603;44.910;8.630;2023-05-14T14:10:20;2.25;;;1.27;;
22871;SDS011;11603;44.910;8.630;2023-05-14T14:12:47;2.05;;;1.17;;
22871;SDS011;11603;44.910;8.630;2023-05-14T14:15:13;2.88;;;1.30;;
22871;SDS011;11603;44.910;8.630;2023-05-14T14:17:39;1.90;;;1.15;;
22871;SDS011;11603;44.910;8.630;2023-05-14T14:20:08;2.38;;;0.90;;
22871;SDS011;11603;44.910;8.630;2023-05-14T14:22:34;0.95;;;0.90;;
22871;SDS011;11603;44.910;8.630;2023-05-14T14:25:00;1.95;;;0.95;;
22871;SDS011;11603;44.910;8.630;2023-05-14T14:27:26;4.03;;;1.00;;
22871;SDS011;11603;44.910;8.630;2023-05-14T14:29:51;1.48;;;1.23;;
22871;SDS011;11603;44.910;8.630;2023-05-14T14:32:17;1.17;;;1.05;;
22871;SDS011;11603;44.910;8.630;2023-05-14T14:34:42;1.73;;;0.95;;
22871;SDS011;11603;44.910;8.630;2023-05-14T14:37:08;2.05;;;0.90;;
22871;SDS011;11603;44.910;8.630;2023-05-14T14:39:34;1.15;;;0.93;;
22871;SDS011;11603;44.910;8.630;2023-05-14T14:41:59;3.05;;;0.90;;
22871;SDS011;11603;44.910;8.630;2023-05-14T14:44:25;1.33;;;0.90;;
22871;SDS011;11603;44.910;8.630;2023-05-14T14:46:50;1.00;;;0.80;;